createdAt,value
2018-07-13T00:01:08.627Z,15.97
2018-07-13T00:03:37.390Z,14.30
2018-07-13T00:06:06.178Z,14.67
2018-07-13T00:08:34.938Z,12.33
2018-07-13T00:11:03.622Z,13.03
2018-07-13T00:13:33.890Z,14.37
2018-07-13T00:16:03.986Z,15.97
2018-07-13T00:18:32.674Z,13.33
2018-07-13T00:21:01.487Z,13.77
2018-07-13T00:23:30.241Z,13.40
2018-07-13T00:25:59.039Z,14.47
2018-07-13T00:28:27.688Z,12.20
2018-07-13T00:30:56.379Z,12.23
2018-07-13T00:33:25.112Z,14.73
2018-07-13T00:35:53.830Z,15.67
2018-07-13T00:38:22.577Z,14.03
2018-07-13T00:40:51.277Z,13.47
2018-07-13T00:43:20.035Z,12.70
2018-07-13T00:45:48.748Z,12.23
2018-07-13T00:48:17.484Z,14.13
2018-07-13T00:50:46.227Z,14.87
2018-07-13T00:53:14.891Z,13.67
2018-07-13T00:55:43.722Z,14.20
2018-07-13T00:58:12.439Z,13.60
2018-07-13T01:00:41.170Z,14.37
2018-07-13T01:03:09.951Z,12.97
2018-07-13T01:05:38.626Z,14.40
2018-07-13T01:08:07.363Z,14.30
2018-07-13T01:10:36.096Z,14.13
2018-07-13T01:13:04.779Z,12.07
2018-07-13T01:15:33.501Z,12.83
2018-07-13T01:18:02.318Z,14.93
2018-07-13T01:20:31.183Z,13.57
2018-07-13T01:22:59.858Z,13.57
2018-07-13T01:25:28.549Z,12.63
2018-07-13T01:27:57.276Z,50.60
2018-07-13T01:30:26.003Z,32.07
2018-07-13T01:32:54.706Z,15.10
2018-07-13T01:35:23.374Z,18.20
2018-07-13T01:37:52.180Z,14.03
2018-07-13T01:40:20.886Z,15.50
2018-07-13T01:42:49.815Z,13.07
2018-07-13T01:45:18.569Z,13.53
2018-07-13T01:47:47.271Z,13.53
2018-07-13T01:50:16.077Z,15.33
2018-07-13T01:52:45.062Z,15.67
2018-07-13T01:55:13.787Z,15.70
2018-07-13T01:57:42.582Z,16.13
2018-07-13T02:00:11.361Z,13.90
2018-07-13T02:02:40.092Z,13.50
2018-07-13T02:05:08.780Z,14.40
2018-07-13T02:07:37.483Z,13.93
2018-07-13T02:10:06.245Z,15.17
2018-07-13T02:12:34.983Z,15.10
2018-07-13T02:15:03.706Z,14.47
2018-07-13T02:17:32.411Z,16.90
2018-07-13T02:20:01.281Z,16.23
2018-07-13T02:22:29.947Z,14.83
2018-07-13T02:24:58.673Z,16.97
2018-07-13T02:27:27.381Z,16.17
2018-07-13T02:29:56.066Z,19.40
2018-07-13T02:32:24.739Z,16.00
2018-07-13T02:34:52.356Z,16.97
2018-07-13T02:37:21.075Z,18.40
2018-07-13T02:39:49.747Z,16.03
2018-07-13T02:42:18.431Z,16.97
2018-07-13T02:44:47.178Z,14.97
2018-07-13T02:47:16.114Z,17.00
2018-07-13T02:49:44.819Z,14.80
2018-07-13T02:52:13.466Z,15.83
2018-07-13T02:54:42.227Z,18.30
2018-07-13T02:57:10.975Z,17.43
2018-07-13T02:59:39.687Z,16.90
2018-07-13T03:02:08.355Z,17.90
2018-07-13T03:04:37.088Z,18.17
2018-07-13T03:07:05.830Z,17.10
2018-07-13T03:09:35.222Z,21.07
2018-07-13T03:12:03.916Z,15.87
2018-07-13T03:14:32.651Z,15.53
2018-07-13T03:17:01.415Z,25.87
2018-07-13T03:19:31.447Z,16.10
2018-07-13T03:22:00.725Z,19.00
2018-07-13T03:24:31.539Z,14.13
2018-07-13T03:27:01.010Z,15.63
2018-07-13T03:29:31.938Z,15.93
2018-07-13T03:32:00.638Z,15.23
2018-07-13T03:34:29.315Z,16.70
2018-07-13T03:36:57.977Z,17.97
2018-07-13T03:39:26.697Z,19.00
2018-07-13T03:41:55.419Z,18.80
2018-07-13T03:44:24.089Z,18.57
2018-07-13T03:46:52.808Z,19.23
2018-07-13T03:49:21.513Z,18.13
2018-07-13T03:51:50.228Z,20.47
2018-07-13T03:54:20.189Z,19.37
2018-07-13T03:56:48.954Z,21.70
2018-07-13T03:59:17.793Z,19.93
2018-07-13T04:01:46.503Z,19.47
2018-07-13T04:04:15.226Z,22.23
2018-07-13T04:06:43.969Z,23.77
2018-07-13T04:09:12.788Z,20.13
2018-07-13T04:11:41.594Z,21.03
2018-07-13T04:14:11.148Z,23.10
2018-07-13T04:16:40.062Z,20.33
2018-07-13T04:19:08.752Z,21.67
2018-07-13T04:21:37.600Z,21.33
2018-07-13T04:24:06.574Z,22.23
2018-07-13T04:26:36.176Z,23.07
2018-07-13T04:29:05.302Z,22.67
2018-07-13T04:31:34.082Z,24.63
2018-07-13T04:34:02.894Z,28.33
2018-07-13T04:36:31.623Z,25.10
2018-07-13T04:39:00.331Z,23.87
2018-07-13T04:41:29.136Z,23.77
2018-07-13T04:43:57.974Z,23.30
2018-07-13T04:46:26.871Z,23.57
2018-07-13T04:48:55.584Z,22.07
2018-07-13T04:51:24.401Z,21.83
2018-07-13T04:53:53.174Z,23.53
2018-07-13T04:56:22.238Z,23.53
2018-07-13T04:58:51.366Z,23.00
2018-07-13T05:01:20.156Z,22.47
2018-07-13T05:03:48.958Z,24.47
2018-07-13T05:06:17.936Z,24.17
2018-07-13T05:08:46.738Z,24.30
2018-07-13T05:11:15.507Z,25.97
2018-07-13T05:13:44.294Z,22.70
2018-07-13T05:16:13.174Z,22.67
2018-07-13T05:18:41.895Z,25.20
2018-07-13T05:21:10.699Z,23.07
2018-07-13T05:23:39.545Z,24.97
2018-07-13T05:26:08.914Z,23.60
2018-07-13T05:28:37.710Z,25.40
2018-07-13T05:31:06.476Z,26.40
2018-07-13T05:33:35.338Z,27.57
2018-07-13T05:36:04.236Z,28.67
2018-07-13T05:38:33.943Z,27.87
2018-07-13T05:41:02.828Z,27.93
2018-07-13T05:43:31.694Z,29.97
2018-07-13T05:46:00.497Z,26.87
2018-07-13T05:48:30.148Z,30.77
2018-07-13T05:50:58.949Z,29.40
2018-07-13T05:53:27.850Z,29.40
2018-07-13T05:55:56.646Z,32.50
2018-07-13T05:58:25.477Z,34.53
2018-07-13T06:00:54.307Z,32.43
2018-07-13T06:03:23.146Z,33.50
2018-07-13T06:05:52.030Z,33.27
2018-07-13T06:08:20.858Z,33.67
2018-07-13T06:10:49.663Z,33.03
2018-07-13T06:13:18.539Z,32.97
2018-07-13T06:15:47.378Z,31.90
2018-07-13T06:18:16.220Z,32.33
2018-07-13T06:20:45.064Z,32.97
2018-07-13T06:23:13.757Z,33.17
2018-07-13T06:25:42.502Z,30.87
2018-07-13T06:28:11.317Z,33.37
2018-07-13T06:30:40.146Z,31.03
2018-07-13T06:33:09.164Z,31.53
2018-07-13T06:35:44.701Z,31.17
2018-07-13T06:38:13.484Z,32.57
2018-07-13T06:40:42.330Z,29.20
2018-07-13T06:43:11.103Z,30.83
2018-07-13T06:45:41.331Z,31.57
2018-07-13T06:48:10.842Z,33.03
2018-07-13T06:50:39.733Z,31.73
2018-07-13T06:53:09.881Z,32.97
2018-07-13T06:55:38.657Z,32.80
2018-07-13T06:58:18.495Z,33.30
2018-07-13T07:01:04.906Z,31.77
2018-07-13T07:03:37.215Z,30.53
2018-07-13T07:06:10.781Z,29.77
2018-07-13T07:08:41.176Z,31.00
2018-07-13T07:11:10.110Z,32.57
2018-07-13T07:13:40.190Z,30.70
2018-07-13T07:16:08.982Z,29.30
2018-07-13T07:18:37.847Z,31.07
2018-07-13T07:21:06.831Z,30.77
2018-07-13T07:23:36.108Z,30.57
2018-07-13T07:26:05.481Z,29.30
2018-07-13T07:28:34.323Z,31.77
2018-07-13T07:31:04.012Z,28.67
2018-07-13T07:33:32.812Z,26.77
2018-07-13T07:36:01.572Z,27.33
2018-07-13T07:38:30.365Z,27.23
2018-07-13T07:40:59.202Z,27.17
2018-07-13T07:43:28.005Z,27.50
2018-07-13T07:45:56.751Z,26.00
2018-07-13T07:48:25.558Z,26.80
2018-07-13T07:50:54.249Z,27.10
2018-07-13T07:53:22.990Z,26.73
2018-07-13T07:55:51.678Z,25.20
2018-07-13T07:58:20.424Z,25.77
2018-07-13T08:00:49.175Z,25.82
2018-07-13T08:03:17.920Z,27.27
2018-07-13T08:05:46.889Z,25.25
2018-07-13T08:08:15.636Z,25.97
2018-07-13T08:10:44.339Z,26.73
2018-07-13T08:13:13.075Z,24.18
2018-07-13T08:15:41.897Z,26.40
2018-07-13T08:18:10.677Z,26.75
2018-07-13T08:20:44.536Z,25.25
2018-07-13T08:23:13.456Z,24.67
2018-07-13T08:25:44.551Z,23.02
2018-07-13T08:28:13.461Z,23.38
2018-07-13T08:30:44.641Z,22.62
2018-07-13T08:33:13.344Z,25.17
2018-07-13T08:35:42.086Z,25.55
2018-07-13T08:38:10.849Z,26.02
2018-07-13T08:40:39.680Z,25.12
2018-07-13T08:43:08.503Z,26.55
2018-07-13T08:45:37.394Z,26.10
2018-07-13T08:48:06.208Z,25.60
2018-07-13T08:50:35.099Z,24.52
2018-07-13T08:53:03.998Z,23.42
2018-07-13T08:55:32.889Z,22.62
2018-07-13T08:58:02.043Z,22.85
2018-07-13T09:00:30.831Z,23.42
2018-07-13T09:02:59.619Z,21.90
2018-07-13T09:05:28.449Z,21.85
2018-07-13T09:07:57.681Z,21.12
2018-07-13T09:10:26.489Z,23.55
2018-07-13T09:12:55.334Z,22.30
2018-07-13T09:15:24.113Z,22.17
2018-07-13T09:17:52.917Z,22.25
2018-07-13T09:20:21.848Z,20.45
2018-07-13T09:22:50.637Z,20.52
2018-07-13T09:25:19.418Z,19.42
2018-07-13T09:27:48.147Z,18.27
2018-07-13T09:30:16.902Z,20.05
2018-07-13T09:32:45.700Z,20.60
2018-07-13T09:35:14.512Z,18.50
2018-07-13T09:37:43.325Z,17.67
2018-07-13T09:40:12.086Z,19.32
2018-07-13T09:42:40.866Z,18.73
2018-07-13T09:45:09.926Z,19.48
2018-07-13T09:47:38.774Z,19.15
2018-07-13T09:50:07.574Z,18.45
2018-07-13T09:52:36.315Z,18.87
2018-07-13T09:55:05.215Z,15.95
2018-07-13T09:57:33.974Z,16.95
2018-07-13T10:00:02.724Z,16.30
2018-07-13T10:02:31.540Z,16.32
2018-07-13T10:05:00.390Z,17.73
2018-07-13T10:07:29.260Z,17.73
2018-07-13T10:09:58.078Z,12.98
2018-07-13T10:12:26.929Z,13.80
2018-07-13T10:14:55.714Z,14.85
2018-07-13T10:17:24.560Z,14.93
2018-07-13T10:19:53.387Z,13.22
2018-07-13T10:22:27.055Z,13.30
2018-07-13T10:24:57.644Z,13.53
2018-07-13T10:27:30.060Z,13.45
2018-07-13T10:29:59.268Z,13.90
2018-07-13T10:32:28.090Z,14.15
2018-07-13T10:34:56.861Z,14.70
2018-07-13T10:37:27.401Z,13.38
2018-07-13T10:39:56.236Z,13.83
2018-07-13T10:42:25.818Z,12.82
2018-07-13T10:44:54.591Z,14.10
2018-07-13T10:47:23.620Z,14.63
2018-07-13T10:49:52.358Z,14.15
2018-07-13T10:52:21.172Z,13.62
2018-07-13T10:54:49.932Z,13.65
2018-07-13T10:57:18.714Z,12.47
2018-07-13T10:59:47.486Z,12.20
2018-07-13T11:02:16.279Z,12.82
2018-07-13T11:04:45.699Z,13.28
2018-07-13T11:07:14.408Z,13.55
2018-07-13T11:09:46.080Z,12.45
2018-07-13T11:12:14.856Z,15.60
2018-07-13T11:14:43.647Z,11.80
2018-07-13T11:17:13.122Z,11.68
2018-07-13T11:19:41.939Z,12.88
2018-07-13T11:22:10.695Z,12.55
2018-07-13T11:24:39.415Z,13.72
2018-07-13T11:27:08.227Z,13.25
2018-07-13T11:29:37.064Z,15.15
2018-07-13T11:32:05.964Z,12.15
2018-07-13T11:34:34.750Z,12.50
2018-07-13T11:37:03.608Z,14.28
2018-07-13T11:39:32.237Z,11.15
2018-07-13T11:42:00.959Z,15.75
2018-07-13T11:44:29.713Z,10.25
2018-07-13T11:46:58.503Z,13.35
2018-07-13T11:49:27.258Z,16.62
2018-07-13T11:51:56.080Z,14.63
2018-07-13T11:54:24.797Z,17.87
2018-07-13T11:56:53.540Z,16.32
2018-07-13T11:59:22.285Z,15.08
2018-07-13T12:01:51.714Z,15.10
2018-07-13T12:04:20.404Z,15.68
2018-07-13T12:06:49.215Z,15.53
2018-07-13T12:09:17.929Z,16.82
2018-07-13T12:11:46.691Z,15.70
2018-07-13T12:14:15.381Z,15.93
2018-07-13T12:16:44.204Z,15.50
2018-07-13T12:19:12.935Z,16.62
2018-07-13T12:21:41.654Z,15.63
2018-07-13T12:24:10.346Z,14.70
2018-07-13T12:26:39.144Z,13.85
2018-07-13T12:29:07.870Z,12.78
2018-07-13T12:31:36.886Z,13.03
2018-07-13T12:34:05.632Z,14.28
2018-07-13T12:36:34.334Z,13.80
2018-07-13T12:39:03.164Z,13.40
2018-07-13T12:41:31.919Z,13.20
2018-07-13T12:44:00.639Z,14.93
2018-07-13T12:46:29.412Z,17.90
2018-07-13T12:48:58.121Z,15.28
2018-07-13T12:51:26.936Z,14.80
2018-07-13T12:53:55.778Z,16.12
2018-07-13T12:56:24.652Z,16.62
2018-07-13T12:58:53.459Z,15.75
2018-07-13T13:01:22.245Z,14.63
2018-07-13T13:03:50.935Z,13.55
2018-07-13T13:06:19.721Z,14.55
2018-07-13T13:08:48.390Z,12.53
2018-07-13T13:11:17.420Z,13.15
2018-07-13T13:13:46.460Z,13.60
2018-07-13T13:16:15.172Z,13.70
2018-07-13T13:18:43.903Z,12.45
2018-07-13T13:21:12.624Z,12.85
2018-07-13T13:23:41.392Z,12.50
2018-07-13T13:26:10.113Z,12.82
2018-07-13T13:28:38.803Z,14.05
2018-07-13T13:31:07.578Z,14.70
2018-07-13T13:33:36.329Z,12.98
2018-07-13T13:36:05.096Z,11.50
2018-07-13T13:38:33.867Z,15.65
2018-07-13T13:41:02.651Z,14.38
2018-07-13T13:43:31.350Z,12.82
2018-07-13T13:46:00.123Z,15.18
2018-07-13T13:48:28.822Z,14.53
2018-07-13T13:50:57.505Z,13.15
2018-07-13T13:53:26.322Z,14.55
2018-07-13T13:55:55.044Z,15.28
2018-07-13T13:58:23.788Z,16.57
2018-07-13T14:00:52.519Z,14.58
2018-07-13T14:03:21.324Z,15.98
2018-07-13T14:05:50.099Z,16.57
2018-07-13T14:08:19.101Z,20.40
2018-07-13T14:10:47.934Z,21.55
2018-07-13T14:13:16.646Z,21.95
2018-07-13T14:15:45.457Z,19.57
2018-07-13T14:18:14.192Z,20.45
2018-07-13T14:20:42.942Z,21.17
2018-07-13T14:23:11.672Z,21.85
2018-07-13T14:25:40.452Z,24.75
2018-07-13T14:28:09.265Z,24.75
2018-07-13T14:30:37.984Z,20.17
2018-07-13T14:33:06.790Z,19.42
2018-07-13T14:35:35.448Z,20.70
2018-07-13T14:38:09.133Z,21.68
2018-07-13T14:40:37.974Z,20.77
2018-07-13T14:43:06.872Z,21.33
2018-07-13T14:45:35.695Z,23.65
2018-07-13T14:48:04.480Z,22.45
2018-07-13T14:50:33.254Z,23.52
2018-07-13T14:53:01.998Z,23.95
2018-07-13T14:55:30.725Z,21.70
2018-07-13T14:57:59.836Z,25.40
2018-07-13T15:00:28.641Z,24.07
2018-07-13T15:02:57.499Z,24.15
2018-07-13T15:05:26.330Z,23.77
2018-07-13T15:07:57.867Z,22.93
2018-07-13T15:10:26.766Z,20.62
2018-07-13T15:12:55.459Z,20.48
2018-07-13T15:15:24.279Z,14.95
2018-07-13T15:17:53.047Z,14.00
2018-07-13T15:20:21.753Z,16.27
2018-07-13T15:22:50.442Z,13.93
2018-07-13T15:25:19.168Z,12.60
2018-07-13T15:27:47.903Z,13.95
2018-07-13T15:30:17.960Z,11.65
2018-07-13T15:32:46.690Z,12.58
2018-07-13T15:35:15.442Z,13.85
2018-07-13T15:37:44.190Z,14.25
2018-07-13T15:40:12.913Z,12.03
2018-07-13T15:42:41.636Z,12.07
2018-07-13T15:45:10.422Z,12.18
2018-07-13T15:47:39.143Z,13.70
2018-07-13T15:50:08.049Z,14.18
2018-07-13T15:52:36.790Z,14.43
2018-07-13T15:55:06.468Z,15.28
2018-07-13T15:57:35.172Z,15.78
2018-07-13T16:00:05.860Z,15.78
2018-07-13T16:02:34.604Z,16.35
2018-07-13T16:05:03.461Z,15.88
2018-07-13T16:07:32.313Z,15.20
2018-07-13T16:10:01.040Z,15.03
2018-07-13T16:12:29.901Z,13.08
2018-07-13T16:14:58.684Z,14.85
2018-07-13T16:17:27.443Z,15.28
2018-07-13T16:19:57.094Z,16.05
2018-07-13T16:22:25.860Z,16.57
2018-07-13T16:24:54.719Z,15.98
2018-07-13T16:27:23.465Z,15.53
2018-07-13T16:29:52.222Z,14.50
2018-07-13T16:32:20.985Z,16.42
2018-07-13T16:34:49.737Z,17.27
2018-07-13T16:37:18.475Z,17.77
2018-07-13T16:39:47.344Z,17.07
2018-07-13T16:42:16.113Z,15.85
2018-07-13T16:44:44.817Z,18.07
2018-07-13T16:47:13.654Z,16.23
2018-07-13T16:49:42.415Z,16.25
2018-07-13T16:52:11.091Z,15.70
2018-07-13T16:54:39.856Z,17.27
2018-07-13T16:57:09.224Z,15.38
2018-07-13T16:59:38.068Z,15.58
2018-07-13T17:02:06.851Z,16.02
2018-07-13T17:04:35.591Z,15.75
2018-07-13T17:07:04.553Z,18.25
2018-07-13T17:09:33.287Z,18.12
2018-07-13T17:12:02.103Z,17.77
2018-07-13T17:14:30.935Z,19.10
2018-07-13T17:16:59.746Z,18.20
2018-07-13T17:19:28.608Z,21.57
2018-07-13T17:21:57.534Z,17.92
2018-07-13T17:24:26.217Z,19.05
2018-07-13T17:26:54.980Z,19.00
2018-07-13T17:29:23.715Z,19.57
2018-07-13T17:31:52.420Z,19.73
2018-07-13T17:34:21.260Z,18.57
2018-07-13T17:36:49.977Z,19.87
2018-07-13T17:39:18.672Z,31.40
2018-07-13T17:41:47.771Z,19.55
2018-07-13T17:44:16.844Z,18.87
2018-07-13T17:46:48.238Z,18.57
2018-07-13T17:49:17.277Z,19.35
2018-07-13T17:51:47.027Z,20.57
2018-07-13T17:54:18.610Z,20.17
2018-07-13T17:56:47.497Z,20.40
2018-07-13T17:59:16.187Z,22.82
2018-07-13T18:01:44.912Z,45.15
2018-07-13T18:04:13.747Z,23.07
2018-07-13T18:06:42.466Z,23.65
2018-07-13T18:09:11.217Z,28.13
2018-07-13T18:11:40.020Z,26.43
2018-07-13T18:14:09.039Z,22.57
2018-07-13T18:16:37.763Z,20.93
2018-07-13T18:19:06.630Z,20.60
2018-07-13T18:21:35.486Z,22.30
2018-07-13T18:24:04.237Z,22.82
2018-07-13T18:26:33.084Z,21.43
2018-07-13T18:29:01.840Z,22.30
2018-07-13T18:31:30.696Z,22.30
2018-07-13T18:33:59.446Z,21.47
2018-07-13T18:36:28.485Z,21.95
2018-07-13T18:39:02.195Z,21.90
2018-07-13T18:41:31.969Z,22.77
2018-07-13T18:44:00.742Z,24.63
2018-07-13T18:46:29.488Z,21.60
2018-07-13T18:48:58.375Z,22.13
2018-07-13T18:51:27.160Z,23.20
2018-07-13T18:53:55.861Z,21.57
2018-07-13T18:56:25.349Z,20.50
2018-07-13T18:58:54.110Z,20.77
2018-07-13T19:01:22.885Z,21.90
2018-07-13T19:03:51.670Z,20.33
2018-07-13T19:06:20.514Z,21.37
2018-07-13T19:08:49.533Z,22.73
2018-07-13T19:11:19.601Z,25.20
2018-07-13T19:13:48.395Z,23.37
2018-07-13T19:16:17.507Z,29.03
2018-07-13T19:18:46.725Z,24.30
2018-07-13T19:21:15.433Z,26.60
2018-07-13T19:23:44.138Z,23.23
2018-07-13T19:26:13.047Z,23.00
2018-07-13T19:28:41.828Z,23.03
2018-07-13T19:31:10.624Z,25.90
2018-07-13T19:33:39.616Z,25.77
2018-07-13T19:36:08.505Z,27.70
2018-07-13T19:38:37.248Z,29.60
2018-07-13T19:41:06.059Z,32.23
2018-07-13T19:43:34.909Z,29.73
2018-07-13T19:46:03.715Z,34.43
2018-07-13T19:48:33.078Z,29.63
2018-07-13T19:51:01.749Z,32.43
2018-07-13T19:53:30.559Z,33.57
2018-07-13T19:55:59.295Z,28.13
2018-07-13T19:58:28.012Z,30.13
2018-07-13T20:00:56.796Z,26.17
2018-07-13T20:03:25.858Z,27.47
2018-07-13T20:05:54.802Z,25.50
2018-07-13T20:08:23.574Z,28.80
2018-07-13T20:10:52.306Z,28.10
2018-07-13T20:13:21.220Z,27.83
2018-07-13T20:15:49.948Z,29.87
2018-07-13T20:18:20.370Z,30.17
2018-07-13T20:20:49.970Z,25.73
2018-07-13T20:23:18.876Z,28.23
2018-07-13T20:25:47.603Z,25.77
2018-07-13T20:28:16.326Z,26.53
2018-07-13T20:30:45.158Z,30.97
2018-07-13T20:33:13.870Z,25.87
2018-07-13T20:35:42.780Z,25.13
2018-07-13T20:38:11.507Z,23.20
2018-07-13T20:40:40.309Z,26.10
2018-07-13T20:43:09.030Z,28.73
2018-07-13T20:45:37.744Z,24.80
2018-07-13T20:48:06.501Z,25.67
2018-07-13T20:50:35.370Z,22.00
2018-07-13T20:53:04.077Z,22.47
2018-07-13T20:55:32.856Z,17.37
2018-07-13T20:58:01.552Z,17.60
2018-07-13T21:00:30.510Z,17.87
2018-07-13T21:02:59.263Z,20.13
2018-07-13T21:05:28.007Z,17.83
2018-07-13T21:07:56.769Z,18.40
2018-07-13T21:10:25.498Z,19.77
2018-07-13T21:12:54.166Z,16.70
2018-07-13T21:15:22.969Z,17.27
2018-07-13T21:17:51.758Z,17.53
2018-07-13T21:20:20.632Z,16.00
2018-07-13T21:22:49.188Z,17.03
2018-07-13T21:25:17.898Z,16.77
2018-07-13T21:27:46.634Z,17.17
2018-07-13T21:30:15.303Z,17.73
2018-07-13T21:32:44.112Z,15.57
2018-07-13T21:35:13.267Z,16.20
2018-07-13T21:37:42.071Z,16.70
2018-07-13T21:40:10.788Z,17.23
2018-07-13T21:42:39.545Z,18.83
2018-07-13T21:45:09.100Z,17.07
2018-07-13T21:47:37.838Z,15.27
2018-07-13T21:50:07.287Z,15.30
2018-07-13T21:52:36.107Z,16.00
2018-07-13T21:55:04.919Z,14.80
2018-07-13T21:57:33.641Z,16.00
2018-07-13T22:00:02.392Z,18.13
2018-07-13T22:02:31.201Z,16.33
2018-07-13T22:05:00.794Z,15.20
2018-07-13T22:07:29.756Z,17.00
2018-07-13T22:09:58.522Z,17.53
2018-07-13T22:12:27.262Z,15.63
2018-07-13T22:14:56.034Z,15.63
2018-07-13T22:17:24.801Z,14.47
2018-07-13T22:19:54.591Z,15.33
2018-07-13T22:22:23.637Z,17.63
2018-07-13T22:24:52.479Z,14.03
2018-07-13T22:27:21.257Z,14.87
2018-07-13T22:29:49.969Z,12.93
2018-07-13T22:32:18.685Z,13.80
2018-07-13T22:34:47.373Z,14.80
2018-07-13T22:37:16.077Z,14.87
2018-07-13T22:39:44.833Z,13.30
2018-07-13T22:42:13.626Z,12.77
2018-07-13T22:44:42.312Z,13.50
2018-07-13T22:47:11.037Z,11.83
2018-07-13T22:49:39.708Z,11.00
2018-07-13T22:52:08.489Z,11.23
2018-07-13T22:54:37.191Z,11.63
2018-07-13T22:57:06.253Z,10.77
2018-07-13T22:59:34.963Z,10.83
2018-07-13T23:02:03.763Z,9.50
2018-07-13T23:04:32.484Z,14.13
2018-07-13T23:07:01.384Z,9.53
2018-07-13T23:09:30.063Z,9.40
2018-07-13T23:11:58.757Z,9.20
2018-07-13T23:14:27.502Z,9.83
2018-07-13T23:16:56.167Z,9.10
2018-07-13T23:19:24.799Z,12.27
2018-07-13T23:21:53.485Z,8.63
2018-07-13T23:24:22.325Z,9.80
2018-07-13T23:26:51.013Z,9.00
2018-07-13T23:29:19.755Z,8.73
2018-07-13T23:31:48.464Z,8.00
2018-07-13T23:34:17.174Z,8.23
2018-07-13T23:36:45.831Z,8.10
2018-07-13T23:39:14.505Z,8.70
2018-07-13T23:41:43.211Z,7.90
2018-07-13T23:44:12.002Z,7.37
2018-07-13T23:46:40.750Z,7.33
2018-07-13T23:49:09.425Z,7.53
2018-07-13T23:51:38.095Z,7.33
2018-07-13T23:54:06.861Z,6.50
2018-07-13T23:56:35.556Z,6.27
2018-07-13T23:59:04.373Z,7.13
